createdAt,value
2018-11-05T00:01:23.754Z,95798.16
2018-11-05T00:03:50.452Z,95802.06
2018-11-05T00:06:17.103Z,95802.69
2018-11-05T00:08:43.934Z,95803.27
2018-11-05T00:11:10.586Z,95806.54
2018-11-05T00:13:38.677Z,95789.56
2018-11-05T00:16:04.011Z,95792.54
2018-11-05T00:18:30.698Z,95789.16
2018-11-05T00:20:57.463Z,95791.13
2018-11-05T00:23:24.222Z,95796.58
2018-11-05T00:25:53.018Z,95802.58
2018-11-05T00:28:22.542Z,95800.98
2018-11-05T00:30:49.317Z,95789.04
2018-11-05T00:33:16.053Z,95787.37
2018-11-05T00:35:42.762Z,95781.59
2018-11-05T00:38:09.456Z,95783.60
2018-11-05T00:40:40.242Z,95784.58
2018-11-05T00:43:05.453Z,95783.95
2018-11-05T00:45:32.189Z,95778.28
2018-11-05T00:48:02.142Z,95776.38
2018-11-05T00:50:28.858Z,95777.75
2018-11-05T00:52:55.550Z,95775.64
2018-11-05T00:55:22.261Z,95779.26
2018-11-05T00:57:49.078Z,95770.45
2018-11-05T01:00:15.789Z,95772.61
2018-11-05T01:02:42.484Z,95772.90
2018-11-05T01:05:09.179Z,95761.81
2018-11-05T01:07:36.859Z,95756.75
2018-11-05T01:10:03.546Z,95758.99
2018-11-05T01:12:30.186Z,95765.91
2018-11-05T01:14:58.131Z,95765.52
2018-11-05T01:17:23.577Z,95752.67
2018-11-05T01:19:50.297Z,95761.09
2018-11-05T01:22:16.998Z,95757.82
2018-11-05T01:24:43.683Z,95752.17
2018-11-05T01:27:10.418Z,95756.49
2018-11-05T01:29:37.129Z,95751.30
2018-11-05T01:32:03.869Z,95751.17
2018-11-05T01:34:30.573Z,95752.97
2018-11-05T01:36:57.271Z,95756.41
2018-11-05T01:39:25.226Z,95743.59
2018-11-05T01:41:50.658Z,95741.70
2018-11-05T01:44:17.303Z,95746.09
2018-11-05T01:46:43.979Z,95742.56
2018-11-05T01:49:11.325Z,95745.09
2018-11-05T01:51:37.930Z,95744.71
2018-11-05T01:54:04.635Z,95741.70
2018-11-05T01:56:31.368Z,95739.42
2018-11-05T01:58:57.965Z,95733.98
2018-11-05T02:01:24.611Z,95730.95
2018-11-05T02:03:51.314Z,95729.83
2018-11-05T02:06:18.071Z,95722.90
2018-11-05T02:08:46.161Z,95720.16
2018-11-05T02:11:11.401Z,95724.30
2018-11-05T02:13:38.092Z,95719.75
2018-11-05T02:16:04.802Z,95719.80
2018-11-05T02:18:34.667Z,95728.55
2018-11-05T02:21:01.312Z,95722.25
2018-11-05T02:23:28.026Z,95720.37
2018-11-05T02:25:54.841Z,95721.48
2018-11-05T02:28:21.483Z,95723.48
2018-11-05T02:30:48.291Z,95724.73
2018-11-05T02:33:16.078Z,95727.64
2018-11-05T02:35:41.566Z,95723.34
2018-11-05T02:38:09.664Z,95723.20
2018-11-05T02:40:34.920Z,95718.70
2018-11-05T02:43:01.567Z,95714.17
2018-11-05T02:45:28.258Z,95724.20
2018-11-05T02:47:54.895Z,95713.15
2018-11-05T02:50:21.607Z,95711.27
2018-11-05T02:52:48.311Z,95710.63
2018-11-05T02:55:14.950Z,95715.91
2018-11-05T02:57:41.638Z,95716.15
2018-11-05T03:00:08.268Z,95710.77
2018-11-05T03:02:34.959Z,95716.86
2018-11-05T03:05:01.735Z,95709.59
2018-11-05T03:07:28.373Z,95703.80
2018-11-05T03:09:55.023Z,95710.69
2018-11-05T03:12:21.718Z,95721.66
2018-11-05T03:14:48.377Z,95716.86
2018-11-05T03:17:15.374Z,95708.28
2018-11-05T03:19:42.021Z,95715.45
2018-11-05T03:22:08.812Z,95718.36
2018-11-05T03:24:35.484Z,95713.19
2018-11-05T03:27:02.154Z,95719.72
2018-11-05T03:29:28.891Z,95719.57
2018-11-05T03:31:55.522Z,95716.42
2018-11-05T03:34:22.303Z,95713.90
2018-11-05T03:36:49.184Z,95714.23
2018-11-05T03:39:15.906Z,95724.89
2018-11-05T03:41:42.539Z,95720.28
2018-11-05T03:44:09.228Z,95722.80
2018-11-05T03:46:35.923Z,95722.75
2018-11-05T03:49:03.966Z,95720.22
2018-11-05T03:51:29.261Z,95723.11
2018-11-05T03:53:55.947Z,95721.70
2018-11-05T03:56:22.691Z,95724.08
2018-11-05T03:58:49.278Z,95729.60
2018-11-05T04:01:15.930Z,95731.10
2018-11-05T04:03:42.619Z,95723.93
2018-11-05T04:06:09.263Z,95723.98
2018-11-05T04:08:35.959Z,95721.34
2018-11-05T04:11:02.702Z,95721.94
2018-11-05T04:13:30.707Z,95723.80
2018-11-05T04:15:56.082Z,95732.16
2018-11-05T04:18:24.194Z,95731.27
2018-11-05T04:20:49.408Z,95738.95
2018-11-05T04:23:16.206Z,95739.24
2018-11-05T04:25:42.945Z,95735.83
2018-11-05T04:28:09.639Z,95734.79
2018-11-05T04:30:36.279Z,95740.43
2018-11-05T04:33:02.963Z,95737.16
2018-11-05T04:35:29.706Z,95738.95
2018-11-05T04:37:56.486Z,95743.30
2018-11-05T04:40:23.144Z,95743.53
2018-11-05T04:42:49.931Z,95735.89
2018-11-05T04:45:16.585Z,95730.25
2018-11-05T04:47:43.287Z,95734.27
2018-11-05T04:50:09.935Z,95737.45
2018-11-05T04:52:36.583Z,95733.31
2018-11-05T04:55:03.336Z,95734.92
2018-11-05T04:57:29.977Z,95736.11
2018-11-05T04:59:56.676Z,95739.34
2018-11-05T05:02:23.594Z,95737.39
2018-11-05T05:04:50.273Z,95739.81
2018-11-05T05:07:20.347Z,95744.55
2018-11-05T05:09:46.981Z,95739.20
2018-11-05T05:12:19.223Z,95746.66
2018-11-05T05:14:46.446Z,95749.69
2018-11-05T05:17:13.086Z,95746.31
2018-11-05T05:19:39.861Z,95752.67
2018-11-05T05:22:06.539Z,95750.05
2018-11-05T05:24:33.503Z,95751.09
2018-11-05T05:27:00.245Z,95754.69
2018-11-05T05:29:28.192Z,95751.91
2018-11-05T05:31:53.669Z,95756.37
2018-11-05T05:34:20.363Z,95756.64
2018-11-05T05:36:48.071Z,95753.93
2018-11-05T05:39:14.803Z,95754.09
2018-11-05T05:41:42.851Z,95758.88
2018-11-05T05:44:09.544Z,95756.51
2018-11-05T05:46:34.808Z,95761.83
2018-11-05T05:49:01.447Z,95762.31
2018-11-05T05:51:28.130Z,95762.08
2018-11-05T05:53:56.161Z,95769.90
2018-11-05T05:56:21.522Z,95763.60
2018-11-05T05:58:48.130Z,95754.63
2018-11-05T06:01:14.832Z,95765.27
2018-11-05T06:03:41.527Z,95773.96
2018-11-05T06:06:08.298Z,95772.20
2018-11-05T06:08:37.806Z,95774.47
2018-11-05T06:11:04.466Z,95774.23
2018-11-05T06:13:31.217Z,95781.67
2018-11-05T06:15:57.933Z,95781.93
2018-11-05T06:18:24.606Z,95782.95
2018-11-05T06:20:51.254Z,95786.09
2018-11-05T06:23:17.995Z,95787.11
2018-11-05T06:25:44.750Z,95790.62
2018-11-05T06:28:11.774Z,95788.98
2018-11-05T06:30:38.553Z,95791.77
2018-11-05T06:33:05.164Z,95795.99
2018-11-05T06:35:31.875Z,95791.66
2018-11-05T06:37:58.600Z,95794.80
2018-11-05T06:40:26.585Z,95792.80
2018-11-05T06:42:51.935Z,95793.86
2018-11-05T06:45:18.727Z,95800.29
2018-11-05T06:47:45.339Z,95799.05
2018-11-05T06:50:12.080Z,95796.27
2018-11-05T06:52:38.699Z,95801.86
2018-11-05T06:55:05.396Z,95804.34
2018-11-05T06:57:32.152Z,95803.89
2018-11-05T06:59:58.777Z,95797.85
2018-11-05T07:02:37.743Z,95801.27
2018-11-05T07:05:04.348Z,95799.34
2018-11-05T07:07:30.999Z,95799.54
2018-11-05T07:09:57.908Z,95800.99
2018-11-05T07:12:24.601Z,95796.75
2018-11-05T07:14:51.404Z,95795.73
2018-11-05T07:17:20.670Z,95796.69
2018-11-05T07:19:47.203Z,95793.75
2018-11-05T07:22:13.872Z,95796.59
2018-11-05T07:24:40.578Z,95792.73
2018-11-05T07:27:07.254Z,95794.72
2018-11-05T07:29:33.955Z,95795.45
2018-11-05T07:32:00.790Z,95785.22
2018-11-05T07:34:27.509Z,95790.77
2018-11-05T07:36:54.229Z,95794.81
2018-11-05T07:39:21.610Z,95792.38
2018-11-05T07:41:49.260Z,95794.81
2018-11-05T07:44:16.008Z,95789.46
2018-11-05T07:46:42.722Z,95791.00
2018-11-05T07:49:09.364Z,95790.25
2018-11-05T07:51:36.150Z,95802.30
2018-11-05T07:54:04.253Z,95800.32
2018-11-05T07:56:30.803Z,95795.05
2018-11-05T07:58:57.440Z,95797.47
2018-11-05T08:01:24.134Z,95799.27
2018-11-05T08:03:50.770Z,95800.03
2018-11-05T08:06:17.462Z,95800.28
2018-11-05T08:08:44.181Z,95804.00
2018-11-05T08:11:10.875Z,95797.47
2018-11-05T08:13:37.627Z,95798.09
2018-11-05T08:16:04.302Z,95800.84
2018-11-05T08:18:30.970Z,95806.60
2018-11-05T08:21:00.419Z,95799.03
2018-11-05T08:23:27.085Z,95798.44
2018-11-05T08:25:53.815Z,95802.62
2018-11-05T08:28:20.563Z,95796.31
2018-11-05T08:30:47.572Z,95795.52
2018-11-05T08:33:14.266Z,95798.87
2018-11-05T08:35:40.991Z,95796.80
2018-11-05T08:38:07.725Z,95801.06
2018-11-05T08:40:34.478Z,95796.63
2018-11-05T08:43:03.977Z,95792.14
2018-11-05T08:45:30.638Z,95787.91
2018-11-05T08:47:57.299Z,95786.52
2018-11-05T08:50:24.180Z,95785.12
2018-11-05T08:52:50.766Z,95782.41
2018-11-05T08:55:17.567Z,95789.99
2018-11-05T08:57:48.681Z,95792.27
2018-11-05T09:00:14.997Z,95783.90
2018-11-05T09:02:41.609Z,95784.02
2018-11-05T09:05:10.570Z,95780.27
2018-11-05T09:07:37.240Z,95776.92
2018-11-05T09:10:04.024Z,95778.09
2018-11-05T09:12:30.655Z,95780.67
2018-11-05T09:14:57.434Z,95778.31
2018-11-05T09:17:24.134Z,95775.02
2018-11-05T09:19:53.111Z,95766.93
2018-11-05T09:22:17.613Z,95770.11
2018-11-05T09:24:44.341Z,95765.25
2018-11-05T09:27:11.065Z,95766.38
2018-11-05T09:29:37.819Z,95766.77
2018-11-05T09:32:04.617Z,95767.06
2018-11-05T09:34:31.346Z,95756.70
2018-11-05T09:36:58.089Z,95761.72
2018-11-05T09:39:24.688Z,95757.64
2018-11-05T09:41:51.523Z,95750.95
2018-11-05T09:44:18.191Z,95753.53
2018-11-05T09:46:44.853Z,95752.24
2018-11-05T09:49:11.561Z,95747.45
2018-11-05T09:51:38.199Z,95746.31
2018-11-05T09:54:04.961Z,95744.73
2018-11-05T09:56:31.783Z,95742.70
2018-11-05T09:58:58.475Z,95741.01
2018-11-05T10:01:25.294Z,95742.70
2018-11-05T10:03:52.143Z,95738.09
2018-11-05T10:06:18.818Z,95735.39
2018-11-05T10:08:45.543Z,95729.64
2018-11-05T10:11:12.241Z,95726.05
2018-11-05T10:13:38.886Z,95720.09
2018-11-05T10:16:05.648Z,95717.34
2018-11-05T10:18:32.412Z,95715.98
2018-11-05T10:20:59.047Z,95718.95
2018-11-05T10:23:25.772Z,95725.08
2018-11-05T10:25:55.395Z,95715.59
2018-11-05T10:28:22.040Z,95711.98
2018-11-05T10:30:48.772Z,95706.77
2018-11-05T10:33:15.512Z,95699.12
2018-11-05T10:35:42.112Z,95690.95
2018-11-05T10:38:08.903Z,95695.56
2018-11-05T10:40:35.722Z,95698.53
2018-11-05T10:43:02.461Z,95690.67
2018-11-05T10:45:29.123Z,95689.07
2018-11-05T10:47:55.780Z,95691.34
2018-11-05T10:50:25.561Z,95685.80
2018-11-05T10:52:52.140Z,95682.43
2018-11-05T10:55:18.890Z,95681.46
2018-11-05T10:57:45.563Z,95679.94
2018-11-05T11:00:12.260Z,95684.72
2018-11-05T11:02:38.977Z,95685.09
2018-11-05T11:05:05.739Z,95677.90
2018-11-05T11:07:32.420Z,95668.91
2018-11-05T11:09:59.131Z,95662.43
2018-11-05T11:12:25.870Z,95662.95
2018-11-05T11:14:52.532Z,95658.77
2018-11-05T11:17:19.211Z,95662.66
2018-11-05T11:19:46.277Z,95649.13
2018-11-05T11:22:14.467Z,95652.44
2018-11-05T11:24:39.677Z,95649.91
2018-11-05T11:27:06.391Z,95642.48
2018-11-05T11:29:33.125Z,95640.70
2018-11-05T11:31:59.852Z,95635.28
2018-11-05T11:34:26.458Z,95630.92
2018-11-05T11:36:53.238Z,95632.30
2018-11-05T11:39:19.907Z,95628.50
2018-11-05T11:41:46.607Z,95623.79
2018-11-05T11:44:13.419Z,95622.08
2018-11-05T11:46:40.113Z,95622.08
2018-11-05T11:49:07.641Z,95613.77
2018-11-05T11:51:34.313Z,95616.53
2018-11-05T11:54:03.749Z,95609.95
2018-11-05T11:56:30.375Z,95605.45
2018-11-05T11:58:57.045Z,95600.55
2018-11-05T12:01:23.711Z,95603.23
2018-11-05T12:03:50.365Z,95602.90
2018-11-05T12:06:17.142Z,95597.50
2018-11-05T12:08:43.782Z,95600.12
2018-11-05T12:11:10.433Z,95589.25
2018-11-05T12:13:38.467Z,95588.63
2018-11-05T12:16:03.831Z,95581.44
2018-11-05T12:18:33.672Z,95570.91
2018-11-05T12:21:00.379Z,95565.80
2018-11-05T12:23:30.301Z,95567.63
2018-11-05T12:25:56.959Z,95566.29
2018-11-05T12:28:23.781Z,95560.75
2018-11-05T12:30:51.814Z,95558.06
2018-11-05T12:33:17.183Z,95549.44
2018-11-05T12:35:43.898Z,95551.52
2018-11-05T12:38:10.658Z,95548.86
2018-11-05T12:40:37.407Z,95541.30
2018-11-05T12:43:06.226Z,95538.91
2018-11-05T12:45:30.747Z,95535.27
2018-11-05T12:47:57.411Z,95529.88
2018-11-05T12:50:24.407Z,95521.09
2018-11-05T12:52:52.076Z,95532.11
2018-11-05T12:55:17.758Z,95523.09
2018-11-05T12:57:44.483Z,95528.16
2018-11-05T13:00:11.283Z,95521.02
2018-11-05T13:02:38.057Z,95519.05
2018-11-05T13:05:04.743Z,95523.55
2018-11-05T13:07:31.717Z,95521.06
2018-11-05T13:10:01.233Z,95520.70
2018-11-05T13:12:27.871Z,95515.93
2018-11-05T13:14:57.755Z,95513.13
2018-11-05T13:17:24.401Z,95515.20
2018-11-05T13:19:51.047Z,95506.78
2018-11-05T13:22:18.018Z,95505.54
2018-11-05T13:24:44.457Z,95505.32
2018-11-05T13:27:11.143Z,95504.45
2018-11-05T13:29:37.869Z,95510.55
2018-11-05T13:32:06.177Z,95502.91
2018-11-05T13:34:31.243Z,95504.03
2018-11-05T13:36:57.909Z,95495.72
2018-11-05T13:39:24.544Z,95491.72
2018-11-05T13:41:51.331Z,95498.45
2018-11-05T13:44:18.034Z,95498.07
2018-11-05T13:46:46.210Z,95498.81
2018-11-05T13:49:11.920Z,95501.45
2018-11-05T13:51:38.244Z,95501.38
2018-11-05T13:54:05.046Z,95503.36
2018-11-05T13:56:31.699Z,95500.48
2018-11-05T13:58:58.322Z,95501.97
2018-11-05T14:01:27.232Z,95502.81
2018-11-05T14:03:51.818Z,95503.08
2018-11-05T14:06:18.436Z,95501.50
2018-11-05T14:08:45.226Z,95505.98
2018-11-05T14:11:11.801Z,95506.69
2018-11-05T14:13:38.492Z,95498.17
2018-11-05T14:16:05.131Z,95500.27
2018-11-05T14:18:31.829Z,95501.91
2018-11-05T14:20:58.524Z,95497.39
2018-11-05T14:23:25.230Z,95498.77
2018-11-05T14:25:52.031Z,95510.76
2018-11-05T14:28:18.988Z,95507.83
2018-11-05T14:30:46.809Z,95513.81
2018-11-05T14:33:12.219Z,95510.04
2018-11-05T14:35:38.864Z,95507.59
2018-11-05T14:38:05.700Z,95512.34
2018-11-05T14:40:32.301Z,95518.39
2018-11-05T14:42:59.154Z,95514.00
2018-11-05T14:45:27.843Z,95518.48
2018-11-05T14:47:54.644Z,95523.96
2018-11-05T14:50:21.572Z,95529.84
2018-11-05T14:52:50.341Z,95529.14
2018-11-05T14:55:16.989Z,95535.00
2018-11-05T14:57:43.729Z,95529.31
2018-11-05T15:00:10.456Z,95531.27
2018-11-05T15:02:37.186Z,95536.30
2018-11-05T15:05:03.782Z,95537.43
2018-11-05T15:07:30.520Z,95536.92
2018-11-05T15:09:57.217Z,95537.02
2018-11-05T15:12:24.105Z,95539.19
2018-11-05T15:14:50.934Z,95541.12
2018-11-05T15:17:18.962Z,95542.78
2018-11-05T15:19:44.720Z,95548.34
2018-11-05T15:22:14.647Z,95547.39
2018-11-05T15:24:41.707Z,95558.47
2018-11-05T15:27:08.492Z,95560.59
2018-11-05T15:29:35.164Z,95567.19
2018-11-05T15:32:01.921Z,95563.75
2018-11-05T15:34:28.559Z,95559.58
2018-11-05T15:36:55.338Z,95563.09
2018-11-05T15:39:22.032Z,95567.09
2018-11-05T15:41:48.675Z,95573.97
2018-11-05T15:44:15.904Z,95573.73
2018-11-05T15:46:44.650Z,95572.72
2018-11-05T15:49:09.336Z,95585.00
2018-11-05T15:51:36.180Z,95584.66
2018-11-05T15:54:02.758Z,95581.63
2018-11-05T15:56:29.351Z,95587.21
2018-11-05T15:58:56.152Z,95588.45
2018-11-05T16:01:25.908Z,95588.32
2018-11-05T16:03:53.699Z,95597.72
2018-11-05T16:06:20.419Z,95584.36
2018-11-05T16:08:47.086Z,95589.17
2018-11-05T16:11:13.784Z,95589.63
2018-11-05T16:13:40.504Z,95588.92
2018-11-05T16:16:07.137Z,95589.47
2018-11-05T16:18:33.969Z,95593.64
2018-11-05T16:21:00.635Z,95593.86
2018-11-05T16:23:27.279Z,95594.64
2018-11-05T16:25:54.054Z,95593.51
2018-11-05T16:28:20.668Z,95602.22
2018-11-05T16:30:47.494Z,95599.33
2018-11-05T16:33:14.059Z,95601.41
2018-11-05T16:35:40.825Z,95600.38
2018-11-05T16:38:07.457Z,95605.02
2018-11-05T16:40:34.153Z,95597.11
2018-11-05T16:43:00.806Z,95603.25
2018-11-05T16:45:27.584Z,95603.08
2018-11-05T16:47:54.223Z,95603.67
2018-11-05T16:50:20.924Z,95603.97
2018-11-05T16:52:47.615Z,95602.81
2018-11-05T16:55:14.403Z,95603.84
2018-11-05T16:57:41.147Z,95605.36
2018-11-05T17:00:09.104Z,95605.48
2018-11-05T17:02:35.986Z,95608.52
2018-11-05T17:05:02.408Z,95611.03
2018-11-05T17:07:29.602Z,95613.58
2018-11-05T17:09:59.648Z,95619.52
2018-11-05T17:12:26.336Z,95621.93
2018-11-05T17:14:53.033Z,95620.41
2018-11-05T17:17:19.679Z,95618.52
2018-11-05T17:19:46.378Z,95623.08
2018-11-05T17:22:13.093Z,95620.42
2018-11-05T17:24:39.837Z,95623.05
2018-11-05T17:27:06.535Z,95629.12
2018-11-05T17:29:33.179Z,95624.06
2018-11-05T17:31:59.878Z,95634.80
2018-11-05T17:34:26.560Z,95628.37
2018-11-05T17:36:54.286Z,95632.79
2018-11-05T17:39:20.909Z,95644.17
2018-11-05T17:41:47.551Z,95644.30
2018-11-05T17:44:14.269Z,95649.84
2018-11-05T17:46:40.997Z,95646.83
2018-11-05T17:49:07.663Z,95641.14
2018-11-05T17:51:34.378Z,95648.22
2018-11-05T17:54:01.193Z,95651.49
2018-11-05T17:56:27.979Z,95649.74
2018-11-05T17:58:54.688Z,95656.41
2018-11-05T18:01:21.430Z,95658.06
2018-11-05T18:03:48.215Z,95662.23
2018-11-05T18:06:16.282Z,95654.91
2018-11-05T18:08:41.556Z,95660.23
2018-11-05T18:11:08.154Z,95662.98
2018-11-05T18:13:34.881Z,95663.02
2018-11-05T18:16:01.568Z,95667.16
2018-11-05T18:18:28.223Z,95666.54
2018-11-05T18:20:54.936Z,95674.11
2018-11-05T18:23:21.648Z,95676.11
2018-11-05T18:25:49.270Z,95675.61
2018-11-05T18:28:15.954Z,95679.02
2018-11-05T18:30:42.583Z,95672.08
2018-11-05T18:33:09.388Z,95677.12
2018-11-05T18:35:36.052Z,95676.50
2018-11-05T18:38:02.802Z,95682.16
2018-11-05T18:42:55.890Z,95683.55
2018-11-05T18:45:22.587Z,95678.38
2018-11-05T18:47:49.278Z,95684.31
2018-11-05T18:50:18.117Z,95681.13
2018-11-05T18:52:42.625Z,95683.28
2018-11-05T18:55:09.361Z,95686.95
2018-11-05T18:57:36.123Z,95684.67
2018-11-05T19:00:02.825Z,95690.19
2018-11-05T19:02:29.542Z,95701.39
2018-11-05T19:04:58.550Z,95698.24
2018-11-05T19:07:25.283Z,95698.24
2018-11-05T19:09:52.039Z,95691.69
2018-11-05T19:12:18.717Z,95695.09
2018-11-05T19:14:45.503Z,95696.97
2018-11-05T19:17:12.178Z,95700.88
2018-11-05T19:19:40.169Z,95703.79
2018-11-05T19:22:05.520Z,95702.89
2018-11-05T19:24:32.486Z,95705.66
2018-11-05T19:26:59.014Z,95711.84
2018-11-05T19:29:25.660Z,95718.77
2018-11-05T19:31:52.495Z,95724.45
2018-11-05T19:34:19.206Z,95726.47
2018-11-05T19:36:45.839Z,95719.26
2018-11-05T19:39:12.536Z,95723.66
2018-11-05T19:41:39.287Z,95723.66
2018-11-05T19:44:05.910Z,95725.42
2018-11-05T19:46:32.707Z,95725.05
2018-11-05T19:48:59.456Z,95721.12
2018-11-05T19:51:26.289Z,95720.61
2018-11-05T19:53:52.972Z,95726.39
2018-11-05T19:56:19.672Z,95726.53
2018-11-05T19:58:46.295Z,95718.20
2018-11-05T20:01:12.989Z,95725.25
2018-11-05T20:03:39.640Z,95728.02
2018-11-05T20:06:07.762Z,95724.48
2018-11-05T20:08:33.092Z,95721.98
2018-11-05T20:10:59.735Z,95730.54
2018-11-05T20:13:29.230Z,95724.47
2018-11-05T20:15:53.555Z,95726.38
2018-11-05T20:18:20.275Z,95734.03
2018-11-05T20:20:48.999Z,95732.27
2018-11-05T20:23:13.716Z,95726.23
2018-11-05T20:25:43.216Z,95730.11
2018-11-05T20:28:09.992Z,95729.73
2018-11-05T20:30:38.936Z,95730.35
2018-11-05T20:33:04.857Z,95724.42
2018-11-05T20:35:29.958Z,95723.28
2018-11-05T20:38:05.453Z,95732.35
2018-11-05T20:40:32.197Z,95731.21
2018-11-05T20:42:58.756Z,95731.34
2018-11-05T20:45:25.499Z,95728.67
2018-11-05T20:47:52.151Z,95717.33
2018-11-05T20:50:18.844Z,95723.50
2018-11-05T20:52:45.512Z,95723.27
2018-11-05T20:55:12.237Z,95722.25
2018-11-05T20:57:38.904Z,95719.58
2018-11-05T21:00:05.544Z,95715.42
2018-11-05T21:02:32.239Z,95713.89
2018-11-05T21:04:58.939Z,95720.33
2018-11-05T21:07:25.664Z,95720.68
2018-11-05T21:09:53.668Z,95727.26
2018-11-05T21:12:21.161Z,95725.07
2018-11-05T21:14:45.748Z,95726.36
2018-11-05T21:17:12.460Z,95718.80
2018-11-05T21:19:39.266Z,95722.57
2018-11-05T21:22:05.895Z,95724.78
2018-11-05T21:24:32.595Z,95723.39
2018-11-05T21:27:02.461Z,95717.84
2018-11-05T21:29:29.168Z,95719.72
2018-11-05T21:31:55.768Z,95720.48
2018-11-05T21:34:22.489Z,95721.09
2018-11-05T21:36:49.155Z,95718.81
2018-11-05T21:39:15.873Z,95714.88
2018-11-05T21:41:42.626Z,95716.89
2018-11-05T21:44:09.340Z,95720.18
2018-11-05T21:46:37.403Z,95714.77
2018-11-05T21:49:05.117Z,95713.72
2018-11-05T21:51:31.938Z,95715.00
2018-11-05T21:53:58.733Z,95718.13
2018-11-05T21:56:25.259Z,95711.33
2018-11-05T21:58:55.168Z,95714.47
2018-11-05T22:01:23.283Z,95715.23
2018-11-05T22:03:48.650Z,95713.19
2018-11-05T22:06:15.296Z,95712.93
2018-11-05T22:08:42.099Z,95711.41
2018-11-05T22:11:08.788Z,95720.09
2018-11-05T22:13:35.414Z,95717.56
2018-11-05T22:16:02.053Z,95721.23
2018-11-05T22:18:28.750Z,95716.70
2018-11-05T22:20:55.465Z,95711.02
2018-11-05T22:23:22.139Z,95714.66
2018-11-05T22:25:48.870Z,95709.34
2018-11-05T22:28:15.764Z,95716.80
2018-11-05T22:30:42.413Z,95708.72
2018-11-05T22:33:09.057Z,95711.87
2018-11-05T22:35:35.853Z,95718.40
2018-11-05T22:38:02.614Z,95715.50
2018-11-05T22:40:29.438Z,95719.78
2018-11-05T22:42:56.023Z,95714.99
2018-11-05T22:45:22.774Z,95714.34
2018-11-05T22:47:52.683Z,95716.86
2018-11-05T22:50:19.474Z,95720.25
2018-11-05T22:52:46.145Z,95706.62
2018-11-05T22:55:12.849Z,95705.48
2018-11-05T22:57:39.560Z,95704.10
2018-11-05T23:00:06.163Z,95719.57
2018-11-05T23:02:32.873Z,95719.80
2018-11-05T23:04:59.533Z,95712.25
2018-11-05T23:07:26.268Z,95715.91
2018-11-05T23:09:53.029Z,95713.48
2018-11-05T23:12:19.705Z,95717.14
2018-11-05T23:14:46.342Z,95710.34
2018-11-05T23:17:13.002Z,95718.02
2018-11-05T23:19:39.699Z,95712.47
2018-11-05T23:22:06.395Z,95708.52
2018-11-05T23:24:35.534Z,95713.05
2018-11-05T23:27:02.307Z,95709.89
2018-11-05T23:29:28.978Z,95716.29
2018-11-05T23:31:57.886Z,95710.52
2018-11-05T23:34:24.582Z,95720.30
2018-11-05T23:36:51.310Z,95712.75
2018-11-05T23:39:17.962Z,95719.05
2018-11-05T23:41:44.659Z,95720.52
2018-11-05T23:44:11.410Z,95720.41
2018-11-05T23:46:38.080Z,95723.91
2018-11-05T23:49:06.465Z,95721.80
2018-11-05T23:51:31.530Z,95721.89
2018-11-05T23:54:01.418Z,95723.66
2018-11-05T23:56:28.243Z,95725.90
2018-11-05T23:58:54.883Z,95724.26
